sensor_id;sensor_type;location;lat;lon;timestamp;P1;durP1;ratioP1;P2;durP2;ratioP2
50547;SDS011;38013;48.810;8.818;2022-08-19T00:01:38;17.40;;;12.15;;
50547;SDS011;38013;48.810;8.818;2022-08-19T00:04:06;17.02;;;11.70;;
50547;SDS011;38013;48.810;8.818;2022-08-19T00:06:36;15.83;;;11.50;;
50547;SDS011;38013;48.810;8.818;2022-08-19T00:09:05;20.48;;;12.63;;
50547;SDS011;38013;48.810;8.818;2022-08-19T00:11:35;19.33;;;11.80;;
50547;SDS011;38013;48.810;8.818;2022-08-19T00:14:02;16.15;;;12.05;;
50547;SDS011;38013;48.810;8.818;2022-08-19T00:16:31;16.23;;;12.25;;
50547;SDS011;38013;48.810;8.818;2022-08-19T00:18:57;18.13;;;12.95;;
50547;SDS011;38013;48.810;8.818;2022-08-19T00:21:24;17.17;;;12.68;;
50547;SDS011;38013;48.810;8.818;2022-08-19T00:23:54;16.75;;;12.70;;
50547;SDS011;38013;48.810;8.818;2022-08-19T00:26:24;18.00;;;13.00;;
50547;SDS011;38013;48.810;8.818;2022-08-19T00:28:51;17.02;;;13.18;;
50547;SDS011;38013;48.810;8.818;2022-08-19T00:31:17;16.88;;;12.77;;
50547;SDS011;38013;48.810;8.818;2022-08-19T00:33:43;18.00;;;13.93;;
50547;SDS011;38013;48.810;8.818;2022-08-19T00:36:09;17.20;;;13.30;;
50547;SDS011;38013;48.810;8.818;2022-08-19T00:38:36;17.80;;;13.73;;
50547;SDS011;38013;48.810;8.818;2022-08-19T00:41:07;16.55;;;13.55;;
50547;SDS011;38013;48.810;8.818;2022-08-19T00:43:34;18.88;;;13.88;;
50547;SDS011;38013;48.810;8.818;2022-08-19T00:46:00;18.55;;;14.35;;
50547;SDS011;38013;48.810;8.818;2022-08-19T00:48:29;20.52;;;14.93;;
50547;SDS011;38013;48.810;8.818;2022-08-19T00:50:57;20.75;;;13.82;;
50547;SDS011;38013;48.810;8.818;2022-08-19T00:53:24;18.73;;;13.43;;
50547;SDS011;38013;48.810;8.818;2022-08-19T00:55:55;18.42;;;13.90;;
50547;SDS011;38013;48.810;8.818;2022-08-19T01:00:52;18.67;;;13.75;;
50547;SDS011;38013;48.810;8.818;2022-08-19T01:03:19;17.35;;;13.73;;
50547;SDS011;38013;48.810;8.818;2022-08-19T01:05:47;19.70;;;13.82;;
50547;SDS011;38013;48.810;8.818;2022-08-19T01:08:16;18.05;;;12.70;;
50547;SDS011;38013;48.810;8.818;2022-08-19T01:10:52;18.65;;;14.25;;
50547;SDS011;38013;48.810;8.818;2022-08-19T01:13:21;19.67;;;14.60;;
50547;SDS011;38013;48.810;8.818;2022-08-19T01:15:57;21.38;;;14.07;;
50547;SDS011;38013;48.810;8.818;2022-08-19T01:18:31;19.58;;;14.00;;
50547;SDS011;38013;48.810;8.818;2022-08-19T01:21:03;19.75;;;13.75;;
50547;SDS011;38013;48.810;8.818;2022-08-19T01:23:36;19.75;;;14.77;;
50547;SDS011;38013;48.810;8.818;2022-08-19T01:26:09;20.15;;;14.30;;
50547;SDS011;38013;48.810;8.818;2022-08-19T01:28:44;20.48;;;13.43;;
50547;SDS011;38013;48.810;8.818;2022-08-19T01:31:16;19.77;;;14.30;;
50547;SDS011;38013;48.810;8.818;2022-08-19T01:33:49;22.80;;;14.73;;
50547;SDS011;38013;48.810;8.818;2022-08-19T01:36:29;17.05;;;13.20;;
50547;SDS011;38013;48.810;8.818;2022-08-19T01:38:57;17.60;;;13.43;;
50547;SDS011;38013;48.810;8.818;2022-08-19T01:41:25;17.83;;;13.57;;
50547;SDS011;38013;48.810;8.818;2022-08-19T01:43:52;19.60;;;14.05;;
50547;SDS011;38013;48.810;8.818;2022-08-19T01:46:18;17.63;;;12.98;;
50547;SDS011;38013;48.810;8.818;2022-08-19T01:48:44;18.02;;;14.40;;
50547;SDS011;38013;48.810;8.818;2022-08-19T01:51:12;19.00;;;13.77;;
50547;SDS011;38013;48.810;8.818;2022-08-19T01:53:39;17.58;;;13.23;;
50547;SDS011;38013;48.810;8.818;2022-08-19T01:56:06;19.55;;;15.07;;
50547;SDS011;38013;48.810;8.818;2022-08-19T01:58:35;20.65;;;13.85;;
50547;SDS011;38013;48.810;8.818;2022-08-19T02:01:07;19.38;;;13.40;;
50547;SDS011;38013;48.810;8.818;2022-08-19T02:03:33;17.90;;;13.68;;
50547;SDS011;38013;48.810;8.818;2022-08-19T02:06:03;19.30;;;14.93;;
50547;SDS011;38013;48.810;8.818;2022-08-19T02:08:30;19.63;;;13.32;;
50547;SDS011;38013;48.810;8.818;2022-08-19T02:11:00;16.67;;;13.80;;
50547;SDS011;38013;48.810;8.818;2022-08-19T02:13:26;19.83;;;14.00;;
50547;SDS011;38013;48.810;8.818;2022-08-19T02:15:53;20.35;;;14.88;;
50547;SDS011;38013;48.810;8.818;2022-08-19T02:18:18;23.50;;;14.30;;
50547;SDS011;38013;48.810;8.818;2022-08-19T02:20:44;18.83;;;14.65;;
50547;SDS011;38013;48.810;8.818;2022-08-19T02:23:12;18.38;;;13.93;;
50547;SDS011;38013;48.810;8.818;2022-08-19T02:25:39;18.20;;;14.38;;
50547;SDS011;38013;48.810;8.818;2022-08-19T02:28:07;22.45;;;14.85;;
50547;SDS011;38013;48.810;8.818;2022-08-19T02:30:32;20.00;;;15.00;;
50547;SDS011;38013;48.810;8.818;2022-08-19T02:32:58;18.00;;;14.45;;
50547;SDS011;38013;48.810;8.818;2022-08-19T02:35:25;18.40;;;15.45;;
50547;SDS011;38013;48.810;8.818;2022-08-19T02:37:51;19.85;;;15.27;;
50547;SDS011;38013;48.810;8.818;2022-08-19T02:40:35;19.42;;;15.15;;
50547;SDS011;38013;48.810;8.818;2022-08-19T02:43:02;20.10;;;15.13;;
50547;SDS011;38013;48.810;8.818;2022-08-19T02:45:33;21.83;;;14.48;;
50547;SDS011;38013;48.810;8.818;2022-08-19T02:48:00;18.17;;;15.20;;
50547;SDS011;38013;48.810;8.818;2022-08-19T02:50:27;22.10;;;15.52;;
50547;SDS011;38013;48.810;8.818;2022-08-19T02:52:53;19.98;;;15.27;;
50547;SDS011;38013;48.810;8.818;2022-08-19T02:55:19;19.50;;;15.57;;
50547;SDS011;38013;48.810;8.818;2022-08-19T02:57:46;21.35;;;16.00;;
50547;SDS011;38013;48.810;8.818;2022-08-19T03:00:12;20.23;;;15.75;;
50547;SDS011;38013;48.810;8.818;2022-08-19T03:02:39;18.52;;;14.80;;
50547;SDS011;38013;48.810;8.818;2022-08-19T03:05:06;21.33;;;16.42;;
50547;SDS011;38013;48.810;8.818;2022-08-19T03:07:34;17.80;;;15.30;;
50547;SDS011;38013;48.810;8.818;2022-08-19T03:10:01;21.23;;;15.70;;
50547;SDS011;38013;48.810;8.818;2022-08-19T03:12:28;18.73;;;15.90;;
50547;SDS011;38013;48.810;8.818;2022-08-19T03:14:54;18.40;;;15.70;;
50547;SDS011;38013;48.810;8.818;2022-08-19T03:17:20;22.23;;;16.27;;
50547;SDS011;38013;48.810;8.818;2022-08-19T03:19:46;21.85;;;16.52;;
50547;SDS011;38013;48.810;8.818;2022-08-19T03:22:12;22.38;;;16.65;;
50547;SDS011;38013;48.810;8.818;2022-08-19T03:24:38;22.13;;;17.02;;
50547;SDS011;38013;48.810;8.818;2022-08-19T03:27:03;22.35;;;16.85;;
50547;SDS011;38013;48.810;8.818;2022-08-19T03:29:30;22.52;;;16.20;;
50547;SDS011;38013;48.810;8.818;2022-08-19T03:31:57;23.05;;;16.77;;
50547;SDS011;38013;48.810;8.818;2022-08-19T03:34:27;21.35;;;16.50;;
50547;SDS011;38013;48.810;8.818;2022-08-19T03:36:55;22.40;;;15.80;;
50547;SDS011;38013;48.810;8.818;2022-08-19T03:39:27;23.40;;;16.40;;
50547;SDS011;38013;48.810;8.818;2022-08-19T03:41:54;22.65;;;16.80;;
50547;SDS011;38013;48.810;8.818;2022-08-19T03:44:27;19.75;;;16.02;;
50547;SDS011;38013;48.810;8.818;2022-08-19T03:46:55;23.05;;;17.40;;
50547;SDS011;38013;48.810;8.818;2022-08-19T03:49:23;24.15;;;17.15;;
50547;SDS011;38013;48.810;8.818;2022-08-19T03:54:19;23.25;;;17.08;;
50547;SDS011;38013;48.810;8.818;2022-08-19T03:56:48;21.50;;;16.75;;
50547;SDS011;38013;48.810;8.818;2022-08-19T03:59:18;21.98;;;17.52;;
50547;SDS011;38013;48.810;8.818;2022-08-19T04:01:51;21.40;;;16.30;;
50547;SDS011;38013;48.810;8.818;2022-08-19T04:04:18;24.45;;;17.70;;
50547;SDS011;38013;48.810;8.818;2022-08-19T04:06:44;23.88;;;17.20;;
50547;SDS011;38013;48.810;8.818;2022-08-19T04:09:12;20.75;;;16.55;;
50547;SDS011;38013;48.810;8.818;2022-08-19T04:11:39;22.02;;;17.60;;
50547;SDS011;38013;48.810;8.818;2022-08-19T04:14:13;23.38;;;17.13;;
50547;SDS011;38013;48.810;8.818;2022-08-19T04:16:43;24.55;;;16.80;;
50547;SDS011;38013;48.810;8.818;2022-08-19T04:19:11;23.50;;;17.95;;
50547;SDS011;38013;48.810;8.818;2022-08-19T04:21:38;22.83;;;17.42;;
50547;SDS011;38013;48.810;8.818;2022-08-19T04:24:04;23.63;;;17.30;;
50547;SDS011;38013;48.810;8.818;2022-08-19T04:26:32;23.58;;;17.65;;
50547;SDS011;38013;48.810;8.818;2022-08-19T04:29:01;22.57;;;18.27;;
50547;SDS011;38013;48.810;8.818;2022-08-19T04:31:32;24.75;;;18.10;;
50547;SDS011;38013;48.810;8.818;2022-08-19T04:34:02;24.25;;;17.52;;
50547;SDS011;38013;48.810;8.818;2022-08-19T04:36:32;21.65;;;17.58;;
50547;SDS011;38013;48.810;8.818;2022-08-19T04:39:03;22.25;;;16.45;;
50547;SDS011;38013;48.810;8.818;2022-08-19T04:41:33;20.88;;;17.55;;
50547;SDS011;38013;48.810;8.818;2022-08-19T04:44:18;22.88;;;17.77;;
50547;SDS011;38013;48.810;8.818;2022-08-19T04:46:45;21.83;;;17.58;;
50547;SDS011;38013;48.810;8.818;2022-08-19T04:49:13;20.35;;;16.73;;
50547;SDS011;38013;48.810;8.818;2022-08-19T04:51:42;25.10;;;18.08;;
50547;SDS011;38013;48.810;8.818;2022-08-19T04:54:10;23.90;;;18.17;;
50547;SDS011;38013;48.810;8.818;2022-08-19T04:56:36;24.23;;;18.63;;
50547;SDS011;38013;48.810;8.818;2022-08-19T04:59:04;22.90;;;17.52;;
50547;SDS011;38013;48.810;8.818;2022-08-19T05:01:31;23.67;;;17.15;;
50547;SDS011;38013;48.810;8.818;2022-08-19T05:03:58;21.67;;;17.98;;
50547;SDS011;38013;48.810;8.818;2022-08-19T05:06:26;27.30;;;18.10;;
50547;SDS011;38013;48.810;8.818;2022-08-19T05:08:53;23.50;;;18.52;;
50547;SDS011;38013;48.810;8.818;2022-08-19T05:11:24;24.60;;;18.85;;
50547;SDS011;38013;48.810;8.818;2022-08-19T05:13:53;23.20;;;17.38;;
50547;SDS011;38013;48.810;8.818;2022-08-19T05:16:20;26.88;;;18.48;;
50547;SDS011;38013;48.810;8.818;2022-08-19T05:18:48;23.73;;;18.08;;
50547;SDS011;38013;48.810;8.818;2022-08-19T05:21:32;23.58;;;18.42;;
50547;SDS011;38013;48.810;8.818;2022-08-19T05:24:19;22.40;;;17.45;;
50547;SDS011;38013;48.810;8.818;2022-08-19T05:26:47;20.73;;;17.17;;
50547;SDS011;38013;48.810;8.818;2022-08-19T05:29:16;25.48;;;19.08;;
50547;SDS011;38013;48.810;8.818;2022-08-19T05:31:46;25.13;;;18.17;;
50547;SDS011;38013;48.810;8.818;2022-08-19T05:34:14;23.65;;;18.77;;
50547;SDS011;38013;48.810;8.818;2022-08-19T05:36:42;26.00;;;18.95;;
50547;SDS011;38013;48.810;8.818;2022-08-19T05:39:11;24.67;;;18.63;;
50547;SDS011;38013;48.810;8.818;2022-08-19T05:41:44;23.40;;;18.65;;
50547;SDS011;38013;48.810;8.818;2022-08-19T05:44:25;22.63;;;17.50;;
50547;SDS011;38013;48.810;8.818;2022-08-19T05:46:57;24.27;;;17.92;;
50547;SDS011;38013;48.810;8.818;2022-08-19T05:49:28;21.80;;;17.65;;
50547;SDS011;38013;48.810;8.818;2022-08-19T05:51:54;24.50;;;18.77;;
50547;SDS011;38013;48.810;8.818;2022-08-19T05:54:21;23.85;;;18.55;;
50547;SDS011;38013;48.810;8.818;2022-08-19T05:56:49;24.17;;;18.55;;
50547;SDS011;38013;48.810;8.818;2022-08-19T05:59:17;23.30;;;18.27;;
50547;SDS011;38013;48.810;8.818;2022-08-19T06:01:45;26.33;;;18.40;;
50547;SDS011;38013;48.810;8.818;2022-08-19T06:04:15;25.00;;;18.73;;
50547;SDS011;38013;48.810;8.818;2022-08-19T06:06:43;21.40;;;17.20;;
50547;SDS011;38013;48.810;8.818;2022-08-19T06:09:11;20.35;;;16.48;;
50547;SDS011;38013;48.810;8.818;2022-08-19T06:11:39;23.45;;;18.08;;
50547;SDS011;38013;48.810;8.818;2022-08-19T06:14:10;21.33;;;16.23;;
50547;SDS011;38013;48.810;8.818;2022-08-19T06:16:40;22.17;;;17.67;;
50547;SDS011;38013;48.810;8.818;2022-08-19T06:19:08;22.02;;;17.80;;
50547;SDS011;38013;48.810;8.818;2022-08-19T06:21:38;24.10;;;18.17;;
50547;SDS011;38013;48.810;8.818;2022-08-19T06:24:14;25.67;;;17.48;;
50547;SDS011;38013;48.810;8.818;2022-08-19T06:26:44;20.65;;;16.98;;
50547;SDS011;38013;48.810;8.818;2022-08-19T06:29:12;24.13;;;16.38;;
50547;SDS011;38013;48.810;8.818;2022-08-19T06:31:41;19.88;;;16.25;;
50547;SDS011;38013;48.810;8.818;2022-08-19T06:34:14;21.13;;;16.70;;
50547;SDS011;38013;48.810;8.818;2022-08-19T06:36:41;23.13;;;16.40;;
50547;SDS011;38013;48.810;8.818;2022-08-19T06:39:20;20.80;;;16.27;;
50547;SDS011;38013;48.810;8.818;2022-08-19T06:41:50;21.17;;;16.45;;
50547;SDS011;38013;48.810;8.818;2022-08-19T06:44:21;22.85;;;17.50;;
50547;SDS011;38013;48.810;8.818;2022-08-19T06:46:48;22.23;;;16.65;;
50547;SDS011;38013;48.810;8.818;2022-08-19T06:49:14;23.67;;;17.55;;
50547;SDS011;38013;48.810;8.818;2022-08-19T06:51:42;20.38;;;16.17;;
50547;SDS011;38013;48.810;8.818;2022-08-19T06:54:12;19.92;;;14.93;;
50547;SDS011;38013;48.810;8.818;2022-08-19T06:56:40;19.55;;;16.13;;
50547;SDS011;38013;48.810;8.818;2022-08-19T06:59:07;20.63;;;16.13;;
50547;SDS011;38013;48.810;8.818;2022-08-19T07:01:49;19.02;;;15.02;;
50547;SDS011;38013;48.810;8.818;2022-08-19T07:04:18;19.67;;;15.57;;
50547;SDS011;38013;48.810;8.818;2022-08-19T07:06:55;20.02;;;15.57;;
50547;SDS011;38013;48.810;8.818;2022-08-19T07:09:24;19.33;;;15.95;;
50547;SDS011;38013;48.810;8.818;2022-08-19T07:11:50;20.08;;;15.48;;
50547;SDS011;38013;48.810;8.818;2022-08-19T07:14:18;21.20;;;16.35;;
50547;SDS011;38013;48.810;8.818;2022-08-19T07:19:15;18.50;;;14.73;;
50547;SDS011;38013;48.810;8.818;2022-08-19T07:21:42;18.08;;;15.20;;
50547;SDS011;38013;48.810;8.818;2022-08-19T07:24:08;21.02;;;15.30;;
50547;SDS011;38013;48.810;8.818;2022-08-19T07:26:38;20.23;;;16.67;;
50547;SDS011;38013;48.810;8.818;2022-08-19T07:29:07;17.88;;;14.80;;
50547;SDS011;38013;48.810;8.818;2022-08-19T07:31:33;18.50;;;14.50;;
50547;SDS011;38013;48.810;8.818;2022-08-19T07:34:02;17.90;;;14.70;;
50547;SDS011;38013;48.810;8.818;2022-08-19T07:36:34;19.92;;;15.25;;
50547;SDS011;38013;48.810;8.818;2022-08-19T07:39:04;21.33;;;15.68;;
50547;SDS011;38013;48.810;8.818;2022-08-19T07:41:37;19.73;;;13.95;;
50547;SDS011;38013;48.810;8.818;2022-08-19T07:44:03;20.33;;;16.30;;
50547;SDS011;38013;48.810;8.818;2022-08-19T07:46:31;19.70;;;15.13;;
50547;SDS011;38013;48.810;8.818;2022-08-19T07:48:57;18.08;;;13.60;;
50547;SDS011;38013;48.810;8.818;2022-08-19T07:51:23;17.85;;;14.20;;
50547;SDS011;38013;48.810;8.818;2022-08-19T07:53:49;17.83;;;14.95;;
50547;SDS011;38013;48.810;8.818;2022-08-19T07:56:16;16.10;;;13.77;;
50547;SDS011;38013;48.810;8.818;2022-08-19T07:58:44;19.30;;;14.38;;
50547;SDS011;38013;48.810;8.818;2022-08-19T08:01:17;18.05;;;14.45;;
50547;SDS011;38013;48.810;8.818;2022-08-19T08:03:47;17.45;;;13.70;;
50547;SDS011;38013;48.810;8.818;2022-08-19T08:06:33;18.77;;;14.23;;
50547;SDS011;38013;48.810;8.818;2022-08-19T08:09:20;19.27;;;14.90;;
50547;SDS011;38013;48.810;8.818;2022-08-19T08:12:00;17.60;;;14.40;;
50547;SDS011;38013;48.810;8.818;2022-08-19T08:14:34;17.00;;;13.35;;
50547;SDS011;38013;48.810;8.818;2022-08-19T08:17:23;22.30;;;13.98;;
50547;SDS011;38013;48.810;8.818;2022-08-19T08:19:51;18.00;;;13.68;;
50547;SDS011;38013;48.810;8.818;2022-08-19T08:22:18;17.13;;;13.15;;
50547;SDS011;38013;48.810;8.818;2022-08-19T08:25:06;14.77;;;12.80;;
50547;SDS011;38013;48.810;8.818;2022-08-19T08:27:40;15.50;;;11.70;;
50547;SDS011;38013;48.810;8.818;2022-08-19T08:30:08;15.45;;;12.02;;
50547;SDS011;38013;48.810;8.818;2022-08-19T08:32:46;16.57;;;12.90;;
50547;SDS011;38013;48.810;8.818;2022-08-19T08:35:14;17.00;;;12.50;;
50547;SDS011;38013;48.810;8.818;2022-08-19T08:37:44;15.98;;;12.65;;
50547;SDS011;38013;48.810;8.818;2022-08-19T08:43:33;15.02;;;11.65;;
50547;SDS011;38013;48.810;8.818;2022-08-19T08:46:08;13.00;;;10.93;;
50547;SDS011;38013;48.810;8.818;2022-08-19T08:48:52;13.40;;;11.25;;
50547;SDS011;38013;48.810;8.818;2022-08-19T08:51:40;14.95;;;11.98;;
50547;SDS011;38013;48.810;8.818;2022-08-19T08:54:11;16.25;;;11.43;;
50547;SDS011;38013;48.810;8.818;2022-08-19T08:56:41;15.70;;;12.23;;
50547;SDS011;38013;48.810;8.818;2022-08-19T09:02:00;16.25;;;13.25;;
50547;SDS011;38013;48.810;8.818;2022-08-19T09:04:26;18.55;;;12.48;;
50547;SDS011;38013;48.810;8.818;2022-08-19T09:15:12;17.23;;;12.52;;
50547;SDS011;38013;48.810;8.818;2022-08-19T09:17:39;14.05;;;11.70;;
50547;SDS011;38013;48.810;8.818;2022-08-19T09:22:35;14.85;;;12.07;;
50547;SDS011;38013;48.810;8.818;2022-08-19T09:25:04;16.77;;;11.95;;
50547;SDS011;38013;48.810;8.818;2022-08-19T09:27:32;15.63;;;11.87;;
50547;SDS011;38013;48.810;8.818;2022-08-19T09:29:58;15.73;;;11.52;;
50547;SDS011;38013;48.810;8.818;2022-08-19T09:32:24;14.05;;;11.65;;
50547;SDS011;38013;48.810;8.818;2022-08-19T09:34:52;18.80;;;11.02;;
50547;SDS011;38013;48.810;8.818;2022-08-19T09:37:23;15.05;;;10.48;;
50547;SDS011;38013;48.810;8.818;2022-08-19T09:39:50;13.98;;;10.68;;
50547;SDS011;38013;48.810;8.818;2022-08-19T09:42:16;16.08;;;11.13;;
50547;SDS011;38013;48.810;8.818;2022-08-19T09:44:42;15.48;;;10.23;;
50547;SDS011;38013;48.810;8.818;2022-08-19T09:47:09;14.30;;;10.48;;
50547;SDS011;38013;48.810;8.818;2022-08-19T09:49:36;13.45;;;9.90;;
50547;SDS011;38013;48.810;8.818;2022-08-19T09:52:04;12.98;;;9.52;;
50547;SDS011;38013;48.810;8.818;2022-08-19T09:54:31;15.48;;;10.20;;
50547;SDS011;38013;48.810;8.818;2022-08-19T09:56:57;13.60;;;9.68;;
50547;SDS011;38013;48.810;8.818;2022-08-19T09:59:27;12.43;;;9.15;;
50547;SDS011;38013;48.810;8.818;2022-08-19T10:01:54;11.50;;;9.15;;
50547;SDS011;38013;48.810;8.818;2022-08-19T10:04:20;14.65;;;9.50;;
50547;SDS011;38013;48.810;8.818;2022-08-19T10:06:47;13.40;;;10.40;;
50547;SDS011;38013;48.810;8.818;2022-08-19T10:09:15;12.40;;;9.82;;
50547;SDS011;38013;48.810;8.818;2022-08-19T10:11:43;11.85;;;9.43;;
50547;SDS011;38013;48.810;8.818;2022-08-19T10:14:13;11.40;;;9.27;;
50547;SDS011;38013;48.810;8.818;2022-08-19T10:16:39;13.65;;;9.77;;
50547;SDS011;38013;48.810;8.818;2022-08-19T10:19:06;12.80;;;9.30;;
50547;SDS011;38013;48.810;8.818;2022-08-19T10:21:32;13.15;;;10.13;;
50547;SDS011;38013;48.810;8.818;2022-08-19T10:23:59;13.57;;;10.07;;
50547;SDS011;38013;48.810;8.818;2022-08-19T10:26:36;11.30;;;9.35;;
50547;SDS011;38013;48.810;8.818;2022-08-19T10:29:06;11.23;;;9.50;;
50547;SDS011;38013;48.810;8.818;2022-08-19T10:31:33;15.18;;;9.60;;
50547;SDS011;38013;48.810;8.818;2022-08-19T10:33:59;11.85;;;9.13;;
50547;SDS011;38013;48.810;8.818;2022-08-19T10:36:30;13.25;;;9.52;;
50547;SDS011;38013;48.810;8.818;2022-08-19T10:39:01;13.45;;;9.48;;
50547;SDS011;38013;48.810;8.818;2022-08-19T10:41:32;14.15;;;8.77;;
50547;SDS011;38013;48.810;8.818;2022-08-19T10:46:30;11.50;;;7.75;;
50547;SDS011;38013;48.810;8.818;2022-08-19T10:48:58;11.77;;;8.35;;
50547;SDS011;38013;48.810;8.818;2022-08-19T10:51:26;11.68;;;7.70;;
50547;SDS011;38013;48.810;8.818;2022-08-19T10:54:15;9.73;;;6.80;;
50547;SDS011;38013;48.810;8.818;2022-08-19T10:56:42;9.18;;;7.50;;
50547;SDS011;38013;48.810;8.818;2022-08-19T10:59:18;9.30;;;7.28;;
50547;SDS011;38013;48.810;8.818;2022-08-19T11:01:48;9.82;;;7.20;;
50547;SDS011;38013;48.810;8.818;2022-08-19T11:04:16;9.88;;;7.00;;
50547;SDS011;38013;48.810;8.818;2022-08-19T11:06:44;9.32;;;6.68;;
50547;SDS011;38013;48.810;8.818;2022-08-19T11:09:13;9.70;;;6.85;;
50547;SDS011;38013;48.810;8.818;2022-08-19T11:11:42;10.25;;;6.43;;
50547;SDS011;38013;48.810;8.818;2022-08-19T11:14:09;9.70;;;6.82;;
50547;SDS011;38013;48.810;8.818;2022-08-19T11:16:39;8.32;;;6.28;;
50547;SDS011;38013;48.810;8.818;2022-08-19T11:19:06;9.75;;;5.90;;
50547;SDS011;38013;48.810;8.818;2022-08-19T11:21:35;9.25;;;6.25;;
50547;SDS011;38013;48.810;8.818;2022-08-19T11:24:06;7.70;;;5.43;;
50547;SDS011;38013;48.810;8.818;2022-08-19T11:26:36;9.90;;;5.18;;
50547;SDS011;38013;48.810;8.818;2022-08-19T11:29:04;6.63;;;5.10;;
50547;SDS011;38013;48.810;8.818;2022-08-19T11:31:33;9.15;;;5.28;;
50547;SDS011;38013;48.810;8.818;2022-08-19T11:34:02;7.57;;;5.43;;
50547;SDS011;38013;48.810;8.818;2022-08-19T11:36:31;6.63;;;4.78;;
50547;SDS011;38013;48.810;8.818;2022-08-19T11:38:57;11.23;;;5.05;;
50547;SDS011;38013;48.810;8.818;2022-08-19T11:41:23;10.15;;;4.75;;
50547;SDS011;38013;48.810;8.818;2022-08-19T11:43:50;7.25;;;4.70;;
50547;SDS011;38013;48.810;8.818;2022-08-19T11:46:20;12.57;;;4.85;;
50547;SDS011;38013;48.810;8.818;2022-08-19T11:48:48;10.03;;;4.27;;
50547;SDS011;38013;48.810;8.818;2022-08-19T11:51:17;12.90;;;5.18;;
50547;SDS011;38013;48.810;8.818;2022-08-19T11:53:46;7.72;;;4.88;;
50547;SDS011;38013;48.810;8.818;2022-08-19T11:56:13;7.18;;;5.00;;
50547;SDS011;38013;48.810;8.818;2022-08-19T11:58:39;5.40;;;3.92;;
50547;SDS011;38013;48.810;8.818;2022-08-19T12:01:07;6.63;;;3.70;;
50547;SDS011;38013;48.810;8.818;2022-08-19T12:03:39;7.80;;;4.28;;
50547;SDS011;38013;48.810;8.818;2022-08-19T12:06:06;8.23;;;4.50;;
50547;SDS011;38013;48.810;8.818;2022-08-19T12:08:36;6.38;;;4.47;;
50547;SDS011;38013;48.810;8.818;2022-08-19T12:11:03;7.25;;;4.35;;
50547;SDS011;38013;48.810;8.818;2022-08-19T12:13:29;8.65;;;4.07;;
50547;SDS011;38013;48.810;8.818;2022-08-19T12:15:56;7.55;;;4.07;;
50547;SDS011;38013;48.810;8.818;2022-08-19T12:18:23;6.20;;;3.92;;
50547;SDS011;38013;48.810;8.818;2022-08-19T12:20:50;8.32;;;4.00;;
50547;SDS011;38013;48.810;8.818;2022-08-19T12:23:17;11.00;;;4.32;;
50547;SDS011;38013;48.810;8.818;2022-08-19T12:25:44;6.18;;;4.07;;
50547;SDS011;38013;48.810;8.818;2022-08-19T12:28:15;5.47;;;3.70;;
50547;SDS011;38013;48.810;8.818;2022-08-19T12:30:42;9.30;;;4.45;;
50547;SDS011;38013;48.810;8.818;2022-08-19T12:33:08;6.68;;;3.55;;
50547;SDS011;38013;48.810;8.818;2022-08-19T12:35:34;6.15;;;3.53;;
50547;SDS011;38013;48.810;8.818;2022-08-19T12:38:00;6.97;;;3.85;;
50547;SDS011;38013;48.810;8.818;2022-08-19T12:40:27;6.90;;;3.58;;
50547;SDS011;38013;48.810;8.818;2022-08-19T12:42:53;5.60;;;3.50;;
50547;SDS011;38013;48.810;8.818;2022-08-19T12:45:20;4.95;;;3.42;;
50547;SDS011;38013;48.810;8.818;2022-08-19T12:47:46;7.40;;;4.07;;
50547;SDS011;38013;48.810;8.818;2022-08-19T12:50:12;7.20;;;3.60;;
50547;SDS011;38013;48.810;8.818;2022-08-19T12:52:38;4.97;;;3.50;;
50547;SDS011;38013;48.810;8.818;2022-08-19T12:55:06;5.78;;;3.35;;
50547;SDS011;38013;48.810;8.818;2022-08-19T12:57:33;3.90;;;3.05;;
50547;SDS011;38013;48.810;8.818;2022-08-19T13:02:36;6.35;;;3.53;;
50547;SDS011;38013;48.810;8.818;2022-08-19T13:05:07;7.38;;;3.85;;
50547;SDS011;38013;48.810;8.818;2022-08-19T13:10:04;7.03;;;4.68;;
50547;SDS011;38013;48.810;8.818;2022-08-19T13:12:32;9.43;;;4.90;;
50547;SDS011;38013;48.810;8.818;2022-08-19T13:14:58;6.40;;;4.75;;
50547;SDS011;38013;48.810;8.818;2022-08-19T13:17:24;10.35;;;5.13;;
50547;SDS011;38013;48.810;8.818;2022-08-19T13:19:49;12.70;;;5.25;;
50547;SDS011;38013;48.810;8.818;2022-08-19T13:22:16;10.50;;;5.05;;
50547;SDS011;38013;48.810;8.818;2022-08-19T13:24:42;9.45;;;5.00;;
50547;SDS011;38013;48.810;8.818;2022-08-19T13:27:07;7.10;;;4.55;;
50547;SDS011;38013;48.810;8.818;2022-08-19T13:29:33;5.60;;;4.70;;
50547;SDS011;38013;48.810;8.818;2022-08-19T13:32:18;5.82;;;4.35;;
50547;SDS011;38013;48.810;8.818;2022-08-19T13:35:03;9.43;;;4.50;;
50547;SDS011;38013;48.810;8.818;2022-08-19T13:37:30;7.32;;;4.82;;
50547;SDS011;38013;48.810;8.818;2022-08-19T13:40:17;6.30;;;4.15;;
50547;SDS011;38013;48.810;8.818;2022-08-19T13:42:51;10.50;;;4.60;;
50547;SDS011;38013;48.810;8.818;2022-08-19T13:45:21;7.88;;;4.75;;
50547;SDS011;38013;48.810;8.818;2022-08-19T13:47:50;6.60;;;4.43;;
50547;SDS011;38013;48.810;8.818;2022-08-19T13:50:20;6.13;;;4.35;;
50547;SDS011;38013;48.810;8.818;2022-08-19T13:52:50;5.72;;;4.32;;
50547;SDS011;38013;48.810;8.818;2022-08-19T13:55:17;7.53;;;4.75;;
50547;SDS011;38013;48.810;8.818;2022-08-19T13:57:43;8.10;;;4.50;;
50547;SDS011;38013;48.810;8.818;2022-08-19T14:00:12;5.95;;;4.50;;
50547;SDS011;38013;48.810;8.818;2022-08-19T14:02:43;6.03;;;4.35;;
50547;SDS011;38013;48.810;8.818;2022-08-19T14:05:14;7.30;;;4.63;;
50547;SDS011;38013;48.810;8.818;2022-08-19T14:07:41;5.57;;;4.32;;
50547;SDS011;38013;48.810;8.818;2022-08-19T14:10:08;6.15;;;4.32;;
50547;SDS011;38013;48.810;8.818;2022-08-19T14:12:36;5.93;;;4.32;;
50547;SDS011;38013;48.810;8.818;2022-08-19T14:15:03;4.82;;;3.97;;
50547;SDS011;38013;48.810;8.818;2022-08-19T14:17:33;6.18;;;4.43;;
50547;SDS011;38013;48.810;8.818;2022-08-19T14:20:02;5.68;;;4.10;;
50547;SDS011;38013;48.810;8.818;2022-08-19T14:22:33;7.93;;;4.30;;
50547;SDS011;38013;48.810;8.818;2022-08-19T14:25:01;5.43;;;4.32;;
50547;SDS011;38013;48.810;8.818;2022-08-19T14:27:29;7.00;;;4.28;;
50547;SDS011;38013;48.810;8.818;2022-08-19T14:29:58;7.90;;;4.45;;
50547;SDS011;38013;48.810;8.818;2022-08-19T14:32:24;8.18;;;4.55;;
50547;SDS011;38013;48.810;8.818;2022-08-19T14:34:52;7.43;;;4.38;;
50547;SDS011;38013;48.810;8.818;2022-08-19T14:37:19;6.65;;;4.05;;
50547;SDS011;38013;48.810;8.818;2022-08-19T14:39:47;7.40;;;4.43;;
50547;SDS011;38013;48.810;8.818;2022-08-19T14:42:13;6.50;;;4.32;;
50547;SDS011;38013;48.810;8.818;2022-08-19T14:44:40;8.73;;;4.00;;
50547;SDS011;38013;48.810;8.818;2022-08-19T14:47:07;4.95;;;3.85;;
50547;SDS011;38013;48.810;8.818;2022-08-19T14:49:33;5.20;;;4.00;;
50547;SDS011;38013;48.810;8.818;2022-08-19T14:51:59;6.22;;;4.50;;
50547;SDS011;38013;48.810;8.818;2022-08-19T14:54:25;6.85;;;4.20;;
50547;SDS011;38013;48.810;8.818;2022-08-19T14:56:51;5.30;;;4.40;;
50547;SDS011;38013;48.810;8.818;2022-08-19T14:59:16;6.18;;;4.20;;
50547;SDS011;38013;48.810;8.818;2022-08-19T15:01:43;6.30;;;4.88;;
50547;SDS011;38013;48.810;8.818;2022-08-19T15:04:08;7.13;;;4.07;;
50547;SDS011;38013;48.810;8.818;2022-08-19T15:06:34;5.78;;;4.28;;
50547;SDS011;38013;48.810;8.818;2022-08-19T15:09:00;6.18;;;4.55;;
50547;SDS011;38013;48.810;8.818;2022-08-19T15:11:28;6.13;;;4.25;;